Latest Weather Observations for Lord Howe Island Windy Point

IDN60801

Issued at 10:42 pm EST Saturday 13 July 2024 (issued every 10 minutes, with the page automatically refreshed every 10 minutes)

About weather observations | Map of weather stations | Latest weather observations for NSW | Other Formats
Station Details ID: 200715 Name: LORD HOWE ISLAND WINDY POINT Lat: -31.54 Lon: 159.07 Height: 4.0 m
Data from the previous 72 hours. | See also: Recent months at Lord Howe Island Windy Point
Date/Time
EST
Temp
°C
App
Temp
°C
Dew
Point
°C
Rel
Hum
%
Delta-T
°C
Wind Press
QNH
hPa
Press
MSL
hPa
Rain since
9am
mm
Dir  Spd
km/h
Gust
km/h
Spd
kts
Gust
kts
13/10:30pm - - - - - WSW 24 30 13 16 - - -
13/10:00pm - - - - - WSW 26 30 14 16 - - -
13/09:30pm - - - - - WSW 32 39 17 21 - - -
13/09:00pm - - - - - WSW 28 33 15 18 - - -
13/08:33pm - - - - - W 28 54 15 29 - - -
13/08:30pm - - - - - W 22 37 12 20 - - -
13/08:00pm - - - - - W 22 26 12 14 - - -
13/07:30pm - - - - - W 26 32 14 17 - - -
13/07:00pm - - - - - W 26 32 14 17 - - -
13/06:30pm - - - - - W 28 32 15 17 - - -
13/06:00pm - - - - - WNW 28 33 15 18 - - -
13/05:30pm - - - - - WNW 22 30 12 16 - - -
13/05:00pm - - - - - WNW 26 32 14 17 - - -
13/04:30pm - - - - - WNW 28 32 15 17 - - -
13/04:00pm - - - - - WNW 24 32 13 17 - - -
13/03:30pm - - - - - WNW 22 30 12 16 - - -
13/03:00pm - - - - - WNW 22 30 12 16 - - -
13/02:30pm - - - - - WNW 24 30 13 16 - - -
13/02:00pm - - - - - WNW 26 32 14 17 - - -
13/01:30pm - - - - - WNW 26 32 14 17 - - -
13/01:00pm - - - - - WNW 28 35 15 19 - - -
13/12:30pm - - - - - WNW 28 37 15 20 - - -
13/12:00pm - - - - - WNW 28 35 15 19 - - -
13/11:30am - - - - - WNW 28 35 15 19 - - -
13/11:00am - - - - - WNW 32 39 17 21 - - -
13/10:30am - - - - - WNW 28 39 15 21 - - -
13/10:00am - - - - - W 33 39 18 21 - - -
13/09:30am - - - - - WNW 33 43 18 23 - - -
13/09:00am - - - - - WNW 30 43 16 23 - - -
13/08:30am - - - - - WNW 30 44 16 24 - - -
13/08:00am - - - - - WNW 22 30 12 16 - - -
13/07:30am - - - - - W 32 39 17 21 - - -
13/07:00am - - - - - WNW 28 44 15 24 - - -
13/06:30am - - - - - WNW 24 32 13 17 - - -
13/06:00am - - - - - WNW 26 33 14 18 - - -
13/05:30am - - - - - WNW 28 39 15 21 - - -
13/05:00am - - - - - WNW 26 33 14 18 - - -
13/04:30am - - - - - WNW 30 35 16 19 - - -
13/04:00am - - - - - WNW 28 35 15 19 - - -
13/03:30am - - - - - WNW 24 37 13 20 - - -
13/03:00am - - - - - WNW 26 37 14 20 - - -
13/02:30am - - - - - WNW 24 30 13 16 - - -
13/02:00am - - - - - NW 17 26 9 14 - - -
13/01:30am - - - - - ENE 33 63 18 34 - - -
13/01:28am - - - - - ENE 35 63 19 34 - - -
13/01:09am - - - - - ENE 39 57 21 31 - - -
13/01:00am - - - - - ENE 44 57 24 31 - - -
13/12:30am - - - - - ENE 54 93 29 50 - - -
13/12:27am - - - - - ENE 54 93 29 50 - - -
13/12:00am - - - - - ENE 48 74 26 40 - - -
 
Date/Time
EST
Temp
°C
App
Temp
°C
Dew
Point
°C
Rel
Hum
%
Delta-T
°C
Wind Press
QNH
hPa
Press
MSL
hPa
Rain since
9am
mm
Dir  Spd
km/h
Gust
km/h
Spd
kts
Gust
kts
12/11:30pm - - - - - ENE 50 80 27 43 - - -
12/11:00pm - - - - - ENE 46 70 25 38 - - -
12/10:30pm - - - - - ENE 50 72 27 39 - - -
12/10:00pm - - - - - ENE 52 83 28 45 - - -
12/09:30pm - - - - - ENE 52 82 28 44 - - -
12/09:00pm - - - - - ENE 50 72 27 39 - - -
12/08:30pm - - - - - ENE 54 74 29 40 - - -
12/08:00pm - - - - - ENE 44 65 24 35 - - -
12/07:30pm - - - - - E 30 63 16 34 - - -
12/07:22pm - - - - - E 28 52 15 28 - - -
12/07:10pm - - - - - NNE 28 76 15 41 - - -
12/07:00pm - - - - - NNE 32 69 17 37 - - -
12/06:57pm - - - - - NE 32 69 17 37 - - -
12/06:54pm - - - - - ENE 33 69 18 37 - - -
12/06:46pm - - - - - E 41 69 22 37 - - -
12/06:31pm - - - - - E 28 50 15 27 - - -
12/06:30pm - - - - - E 26 46 14 25 - - -
12/06:13pm - - - - - ENE 24 57 13 31 - - -
12/06:00pm - - - - - ENE 44 87 24 47 - - -
12/05:30pm - - - - - ENE 54 91 29 49 - - -
12/05:23pm - - - - - E 52 91 28 49 - - -
12/05:00pm - - - - - E 35 69 19 37 - - -
12/04:58pm - - - - - E 32 69 17 37 - - -
12/04:32pm - - - - - E 32 61 17 33 - - -
12/04:30pm - - - - - E 32 61 17 33 - - -
12/04:00pm - - - - - E 54 83 29 45 - - -
12/03:30pm - - - - - ENE 65 87 35 47 - - -
12/03:00pm - - - - - ENE 63 95 34 51 - - -
12/02:52pm - - - - - ENE 61 91 33 49 - - -
12/02:30pm - - - - - ENE 52 72 28 39 - - -
12/02:00pm - - - - - ENE 46 65 25 35 - - -
12/01:59pm - - - - - ENE 46 65 25 35 - - -
12/01:30pm - - - - - ENE 50 67 27 36 - - -
12/01:00pm - - - - - ENE 50 69 27 37 - - -
12/12:30pm - - - - - ENE 50 70 27 38 - - -
12/12:00pm - - - - - ENE 46 65 25 35 - - -
12/11:30am - - - - - ENE 48 67 26 36 - - -
12/11:15am - - - - - ENE 44 63 24 34 - - -
12/11:00am - - - - - ENE 41 54 22 29 - - -
12/10:30am - - - - - ENE 43 61 23 33 - - -
12/10:05am - - - - - ENE 43 61 23 33 - - -
12/10:00am - - - - - ENE 44 61 24 33 - - -
12/09:42am - - - - - ENE 46 65 25 35 - - -
12/09:30am - - - - - ENE 46 61 25 33 - - -
12/09:00am - - - - - ENE 50 65 27 35 - - -
12/08:30am - - - - - ENE 48 61 26 33 - - -
12/08:11am - - - - - ENE 46 65 25 35 - - -
12/08:00am - - - - - ENE 50 61 27 33 - - -
12/07:41am - - - - - ENE 41 61 22 33 - - -
12/07:30am - - - - - ENE 43 56 23 30 - - -
12/07:03am - - - - - ENE 50 70 27 38 - - -
12/07:00am - - - - - ENE 48 65 26 35 - - -
12/06:53am - - - - - ENE 43 61 23 33 - - -
12/06:30am - - - - - ENE 43 59 23 32 - - -
12/06:18am - - - - - ENE 46 65 25 35 - - -
12/06:00am - - - - - ENE 46 63 25 34 - - -
12/05:30am - - - - - ENE 44 61 24 33 - - -
12/05:02am - - - - - ENE 46 65 25 35 - - -
12/05:00am - - - - - ENE 48 65 26 35 - - -
12/04:54am - - - - - ENE 46 65 25 35 - - -
12/04:30am - - - - - ENE 48 65 26 35 - - -
12/04:20am - - - - - ENE 43 63 23 34 - - -
12/04:00am - - - - - ENE 48 61 26 33 - - -
12/03:30am - - - - - ENE 43 59 23 32 - - -
12/03:17am - - - - - ENE 39 57 21 31 - - -
12/03:00am - - - - - ENE 41 52 22 28 - - -
12/02:30am - - - - - ENE 35 50 19 27 - - -
12/02:00am - - - - - ENE 43 56 23 30 - - -
12/01:30am - - - - - ENE 41 56 22 30 - - -
12/01:00am - - - - - ENE 39 52 21 28 - - -
12/12:30am - - - - - ENE 39 56 21 30 - - -
12/12:00am - - - - - ENE 37 50 20 27 - - -
 
Date/Time
EST
Temp
°C
App
Temp
°C
Dew
Point
°C
Rel
Hum
%
Delta-T
°C
Wind Press
QNH
hPa
Press
MSL
hPa
Rain since
9am
mm
Dir  Spd
km/h
Gust
km/h
Spd
kts
Gust
kts
11/11:30pm - - - - - ENE 35 48 19 26 - - -
11/11:00pm - - - - - ENE 37 52 20 28 - - -
11/10:30pm - - - - - ENE 37 48 20 26 - - -
11/10:00pm - - - - - ENE 39 54 21 29 - - -
11/09:30pm - - - - - ENE 39 50 21 27 - - -
11/09:00pm - - - - - ENE 41 54 22 29 - - -
11/08:30pm - - - - - ENE 39 50 21 27 - - -
11/08:00pm - - - - - ENE 37 48 20 26 - - -
11/07:30pm - - - - - ENE 37 50 20 27 - - -
11/07:00pm - - - - - ENE 39 50 21 27 - - -
11/06:30pm - - - - - ENE 35 46 19 25 - - -
11/06:00pm - - - - - ENE 39 54 21 29 - - -
11/05:30pm - - - - - ENE 41 52 22 28 - - -
11/05:00pm - - - - - ENE 26 39 14 21 - - -
11/04:30pm - - - - - ENE 26 35 14 19 - - -
11/04:00pm - - - - - E 33 52 18 28 - - -
11/03:33pm - - - - - ENE 33 54 18 29 - - -
11/03:30pm - - - - - ENE 32 43 17 23 - - -
11/03:00pm - - - - - E 37 65 20 35 - - -
11/02:34pm - - - - - ENE 32 50 17 27 - - -
11/02:30pm - - - - - E 26 46 14 25 - - -
11/02:00pm - - - - - ENE 33 52 18 28 - - -
11/01:30pm - - - - - ENE 33 54 18 29 - - -
11/01:00pm - - - - - ENE 35 56 19 30 - - -
11/12:34pm - - - - - ENE 28 46 15 25 - - -
11/12:30pm - - - - - ENE 26 39 14 21 - - -
11/12:00pm - - - - - ENE 13 19 7 10 - - -
11/11:30am - - - - - ENE 13 20 7 11 - - -
11/11:00am - - - - - E 19 24 10 13 - - -
11/10:30am - - - - - E 22 28 12 15 - - -
11/10:00am - - - - - E 15 20 8 11 - - -
11/09:30am - - - - - ENE 11 13 6 7 - - -
11/09:00am - - - - - E 13 20 7 11 - - -
11/08:30am - - - - - E 15 22 8 12 - - -
11/08:00am - - - - - NE 7 11 4 6 - - -
11/07:30am - - - - - E 15 28 8 15 - - -
11/07:00am - - - - - E 22 35 12 19 - - -
11/06:30am - - - - - E 26 41 14 22 - - -
11/06:01am - - - - - ENE 28 46 15 25 - - -
11/06:00am - - - - - ENE 26 46 14 25 - - -
11/05:30am - - - - - ENE 15 19 8 10 - - -
11/05:00am - - - - - ENE 11 17 6 9 - - -
11/04:30am - - - - - E 13 17 7 9 - - -
11/04:00am - - - - - ENE 15 20 8 11 - - -
11/03:30am - - - - - ENE 15 20 8 11 - - -
11/03:00am - - - - - E 17 26 9 14 - - -
11/02:30am - - - - - E 15 20 8 11 - - -
11/02:00am - - - - - ENE 15 26 8 14 - - -
11/01:30am - - - - - ENE 19 24 10 13 - - -
11/01:00am - - - - - ENE 15 20 8 11 - - -
11/12:30am - - - - - ENE 15 24 8 13 - - -
11/12:00am - - - - - ENE 15 26 8 14 - - -
 
Date/Time
EST
Temp
°C
App
Temp
°C
Dew
Point
°C
Rel
Hum
%
Delta-T
°C
Wind Press
QNH
hPa
Press
MSL
hPa
Rain since
9am
mm
Dir  Spd
km/h
Gust
km/h
Spd
kts
Gust
kts
10/11:30pm - - - - - ENE 19 26 10 14 - - -
10/11:00pm - - - - - ENE 19 32 10 17 - - -

Other formats

Comma delimited format used in spreadsheet applications
http://www.bom.gov.au/fwo/IDN60801/IDN60801.95995.axf

JavaScript Object Notation format (JSON) in row-major order
http://www.bom.gov.au/fwo/IDN60801/IDN60801.95995.json

Data quality

Most of these data are generated automatically and are frequently updated. Quality checks on data are not normally performed. It is possible for incorrect values to appear. Refer to information at About Latest Weather Observations and please check the disclaimer before using these data.